Terminal Aerodrome Forecast
Issued by NWS Portland, ME

Home | Current Version | Previous Version | Text Only | Print | Product List | Glossary On
Versions: 1 2 3 4 5 6 7 8 9 10 11 12 13 14 15 16 17 18 19 20 21 22 23
000
FTUS41 KGYX 180002 AAA
TAFPWM
TAF AMD
KPWM 180002Z 1800/1824 36013KT 6SM -RA BR OVC030
     FM181200 30010G17KT 3SM -RASN BR OVC015
     FM181700 31010G20KT P6SM BKN040=

USA.gov is the U.S. government's official web portal to all federal, state and local government web resources and services.